Observations

85.1 °F / 29.5 °C
Calm
71%
75.0°F / 23.9 °C
29.81" (1009 mb)
10 mile(s)
partly cloudy
2021.10.19 0300 UTC

Observations

Surface


Raw METARs

2021/10/19 03:00
PKWA 190300Z AUTO 00000KT 10SM SCT023 30/24 A2981 RMK AO2 T02950239

Translated METAR

Kwajalein, Bucholz AAF, Kwajalein KMR ATOL Airport, Marshall Islands (PKWA) 08-43N 167-44E 2M
Oct 18, 2021 - 11:00 PM EDT / 2021.10.19 0300 UTC
Wind: Calm:0
Visibility: 10 mile(s):0
Sky conditions: partly cloudy
Temperature: 85.1 F (29.5 C)
Heat index: 93.4 F (34.1 C):1
Dew Point: 75.0 F (23.9 C)
Relative Humidity: 71%
Pressure (altimeter): 29.81 in. Hg (1009 hPa)
ob: PKWA 190300Z AUTO 00000KT 10SM SCT023 30/24 A2981 RMK AO2 T02950239
cycle: 3



Upper Air


Latest Skew-T

Skew T Diagram

Latest Data File